VVDN

Da Nang International Airport

Airport
ICAO code
VVDN
IATA Code
DAD
Summary
ICAO Region
APAC
ICAO Territory
Location

Da Nang, Da Nang

Serving
Da Nang
Elevation
33 ft
Coordinates
16° 2' 38" N , 108° 11' 58" E
KCC
Airport LOS
Parallel Runway Operation
Airport WX
Cumulonimbus
Metar
Observation
VVDN 302100Z 23001KT 8000 FEW015 BKN050 17/15 Q1016 NOSIG
Station
Da Nang
Date/Time
2023-01-30 21:00:00
Wind direction
230°
Wind speed
01 kts
Lowest cloud amount
few clouds
Temperature
17°C
Dew point
15°C
Humidity
88%
QNH
1016 hPa
Weather condition
n/a

Da Nang International Airport is located in Da Nang, the largest city in central Vietnam.

Climatology

Tropical monsoon climate (Köppen climate classification Am)

Airport map

Aerial View

SKYbrary Partners:

Safety knowledge contributed by: